Time;durP1;ratioP1;P1;durP2;ratioP2;P2;SDS_P1;SDS_P2;PMS_P1;PMS_P2;Temp;Humidity;BMP_temperature;BMP_pressure;BME280_temperature;BME280_humidity;BME280_pressure;Samples;Min_cycle;Max_cycle;Signal;HPM_P1;HPM_P2
2024/01/30 00:02:00;;;;;;;3.10;1.90;;;;;;;;;;5035348;28;20472;-80
2024/01/30 00:04:27;;;;;;;2.50;1.37;;;;;;;;;;5035639;28;20460;-80
2024/01/30 00:06:54;;;;;;;1.20;1.10;;;;;;;;;;5035889;28;20830;-80
2024/01/30 00:09:21;;;;;;;3.37;0.87;;;;;;;;;;5035358;28;20447;-80
2024/01/30 00:11:49;;;;;;;1.27;0.80;;;5.40;99.90;;;;;;5034740;28;20498;-80
2024/01/30 00:14:16;;;;;;;2.00;1.00;;;;;;;;;;5035001;28;20439;-80
2024/01/30 00:16:43;;;;;;;4.50;1.03;;;;;;;;;;5035324;28;20446;-80
2024/01/30 00:19:10;;;;;;;1.17;1.07;;;5.50;99.90;;;;;;5035794;28;20451;-80
2024/01/30 00:21:37;;;;;;;2.50;0.90;;;;;;;;;;5034875;28;20984;-80
2024/01/30 00:24:04;;;;;;;1.60;0.90;;;5.70;99.90;;;;;;5034759;28;20453;-80
2024/01/30 00:26:31;;;;;;;4.00;1.00;;;5.80;99.90;;;;;;5035198;28;20450;-80
2024/01/30 00:28:59;;;;;;;5.60;1.40;;;7.20;99.90;;;;;;5036149;28;20435;-80
2024/01/30 00:31:26;;;;;;;2.73;1.37;;;;;;;;;;5034087;28;20825;-80
2024/01/30 00:33:54;;;;;;;2.30;1.40;;;;;;;;;;5034915;28;20442;-80
2024/01/30 00:36:20;;;;;;;2.20;1.20;;;5.90;99.90;;;;;;5034627;28;20447;-80
2024/01/30 00:38:47;;;;;;;5.33;1.20;;;5.90;99.90;;;;;;5034954;28;20446;-80
2024/01/30 00:41:14;;;;;;;3.13;2.27;;;5.80;99.90;;;;;;5034477;28;20463;-80
2024/01/30 00:43:41;;;;;;;1.90;1.37;;;;;;;;;;5034489;28;20442;-80
2024/01/30 00:46:09;;;;;;;4.70;1.53;;;5.80;99.90;;;;;;5034463;28;20439;-80
2024/01/30 00:48:36;;;;;;;5.17;1.93;;;;;;;;;;5034726;28;20808;-80
2024/01/30 00:51:03;;;;;;;1.77;1.60;;;5.70;99.90;;;;;;5034260;28;20991;-80
2024/01/30 00:53:30;;;;;;;2.20;1.37;;;5.70;99.90;;;;;;5034694;28;20479;-80
2024/01/30 00:55:57;;;;;;;2.17;1.97;;;;;;;;;;5034235;28;20466;-80
2024/01/30 00:58:24;;;;;;;0.80;0.80;;;;;;;;;;5034511;28;20501;-80
2024/01/30 01:00:51;;;;;;;1.60;1.50;;;;;;;;;;5034110;28;20997;-80
2024/01/30 01:03:20;;;;;;;1.57;1.47;;;5.40;99.90;;;;;;5034623;28;20431;-80
2024/01/30 01:05:47;;;;;;;3.53;1.43;;;;;;;;;;5035028;28;20790;-80
2024/01/30 01:08:14;;;;;;;1.47;1.30;;;;;;;;;;5034053;28;20441;-80
2024/01/30 01:10:42;;;;;;;2.47;1.70;;;;;;;;;;5034448;28;20485;-80
2024/01/30 01:13:09;;;;;;;2.77;1.83;;;;;;;;;;5034052;28;20462;-80
2024/01/30 01:15:37;;;;;;;6.17;2.67;;;5.20;99.90;;;;;;5034142;28;20918;-80
2024/01/30 01:18:04;;;;;;;2.40;1.67;;;5.70;99.90;;;;;;5034032;28;20478;-80
2024/01/30 01:20:32;;;;;;;3.07;2.10;;;5.00;99.90;;;;;;5033853;28;20459;-80
2024/01/30 01:22:59;;;;;;;4.67;1.37;;;;;;;;;;5035547;28;20545;-80
2024/01/30 01:25:26;;;;;;;2.30;1.23;;;;;;;;;;5037284;28;20441;-80
2024/01/30 01:27:53;;;;;;;2.20;1.33;;;;;;;;;;5034382;28;20945;-80
2024/01/30 01:30:21;;;;;;;1.50;1.40;;;4.90;99.90;;;;;;5034165;28;20483;-80
2024/01/30 01:32:54;;;;;;;1.87;1.40;;;5.50;99.90;;;;;;5033993;28;20832;-80
2024/01/30 01:35:22;;;;;;;2.33;1.63;;;4.80;99.90;;;;;;5034069;28;20947;-80
2024/01/30 01:37:54;;;;;;;1.00;0.90;;;7.10;99.90;;;;;;5034773;28;20490;-80
2024/01/30 01:40:22;;;;;;;1.70;1.10;;;5.10;99.90;;;;;;5033767;28;20474;-80
2024/01/30 01:42:51;;;;;;;1.80;1.27;;;5.50;99.90;;;;;;5033645;28;20448;-80
2024/01/30 01:45:18;;;;;;;1.00;0.70;;;5.00;99.90;;;;;;5033522;28;20430;-80
2024/01/30 01:47:49;;;;;;;1.50;1.40;;;5.00;99.90;;;;;;5033683;28;20447;-80
2024/01/30 01:50:18;;;;;;;0.90;0.90;;;5.00;99.90;;;;;;5033792;28;20809;-80
2024/01/30 01:52:47;;;;;;;1.17;1.17;;;5.00;99.90;;;;;;5033461;28;20478;-80
2024/01/30 01:55:17;;;;;;;1.00;1.00;;;6.90;99.90;;;;;;5033746;28;20458;-80
2024/01/30 01:57:44;;;;;;;0.90;0.77;;;;;;;;;;5033673;28;20488;-80
2024/01/30 02:00:13;;;;;;;2.00;1.03;;;5.00;99.90;;;;;;5033459;28;20446;-80
2024/01/30 02:02:40;;;;;;;1.60;1.03;;;;;;;;;;5033521;28;20439;-80
2024/01/30 02:05:09;;;;;;;2.50;1.70;;;4.80;99.90;;;;;;5033498;28;20439;-80
2024/01/30 02:07:36;;;;;;;1.97;1.17;;;;;;;;;;5033219;28;20936;-80
2024/01/30 02:10:03;;;;;;;2.23;1.10;;;;;;;;;;5033437;28;20442;-80
2024/01/30 02:12:31;;;;;;;1.07;0.77;;;4.90;99.90;;;;;;5032998;28;20854;-80
2024/01/30 02:14:58;;;;;;;1.07;1.00;;;;;;;;;;5033629;28;20962;-80
2024/01/30 02:17:25;;;;;;;1.50;1.40;;;4.90;99.90;;;;;;5040340;28;20435;-79
2024/01/30 02:19:53;;;;;;;2.90;1.50;;;5.00;99.90;;;;;;5041228;28;20522;-79
2024/01/30 02:22:22;;;;;;;2.73;1.40;;;4.50;99.90;;;;;;5042485;28;20455;-80
2024/01/30 02:24:49;;;;;;;1.30;1.13;;;;;;;;;;5041832;28;20441;-79
2024/01/30 02:27:16;;;;;;;1.53;1.43;;;;;;;;;;5040951;28;20447;-79
2024/01/30 02:29:43;;;;;;;1.27;1.10;;;;;;;;;;5040628;28;20439;-80
2024/01/30 02:32:11;;;;;;;2.30;1.03;;;;;;;;;;5038978;28;20510;-80
2024/01/30 02:34:38;;;;;;;1.77;1.67;;;;;;;;;;5036520;28;20446;-79
2024/01/30 02:37:05;;;;;;;1.70;1.60;;;4.80;99.90;;;;;;5036363;28;20462;-80
2024/01/30 02:39:33;;;;;;;2.83;1.30;;;4.80;99.90;;;;;;5034270;28;20447;-80
2024/01/30 02:42:00;;;;;;;3.00;1.73;;;;;;;;;;5033246;28;20470;-80
2024/01/30 02:44:27;;;;;;;1.20;1.20;;;;;;;;;;5033235;28;20442;-80
2024/01/30 02:46:55;;;;;;;1.60;1.50;;;;;;;;;;5033590;28;20435;-80
2024/01/30 02:49:22;;;;;;;3.47;1.83;;;;;;;;;;5033184;28;20492;-80
2024/01/30 02:51:49;;;;;;;1.60;1.33;;;;;;;;;;5033384;28;20459;-80
2024/01/30 02:54:16;;;;;;;1.87;1.30;;;;;;;;;;5035464;28;20442;-80
2024/01/30 02:56:44;;;;;;;5.20;1.87;;;4.40;99.90;;;;;;5036574;28;20942;-80
2024/01/30 02:59:11;;;;;;;2.40;1.43;;;;;;;;;;5036457;28;20471;-80
2024/01/30 03:01:44;;;;;;;1.27;0.83;;;4.40;99.90;;;;;;5036586;28;20493;-80
2024/01/30 03:04:12;;;;;;;0.70;0.60;;;;;;;;;;5036652;28;20434;-80
2024/01/30 03:06:39;;;;;;;1.43;1.33;;;;;;;;;;5036559;28;20461;-80
2024/01/30 03:09:06;;;;;;;1.07;0.73;;;4.20;99.90;;;;;;5036647;28;20800;-80
2024/01/30 03:11:33;;;;;;;2.13;1.37;;;;;;;;;;5036185;28;20482;-80
2024/01/30 03:14:01;;;;;;;1.27;1.17;;;4.20;99.90;;;;;;5036335;28;20482;-80
2024/01/30 03:16:29;;;;;;;1.50;1.07;;;;;;;;;;5036547;28;20441;-80
2024/01/30 03:18:56;;;;;;;1.83;1.10;;;;;;;;;;5037437;28;20470;-80
2024/01/30 03:21:23;;;;;;;3.13;1.00;;;;;;;;;;5036202;28;20458;-80
2024/01/30 03:23:50;;;;;;;1.53;1.10;;;4.00;99.90;;;;;;5036547;28;20526;-80
2024/01/30 03:26:17;;;;;;;1.50;0.70;;;;;;;;;;5035980;28;20454;-80
2024/01/30 03:28:44;;;;;;;1.77;1.20;;;;;;;;;;5035972;28;20434;-80
2024/01/30 03:31:15;;;;;;;2.30;0.90;;;4.00;99.90;;;;;;5035997;28;20454;-80
2024/01/30 03:33:42;;;;;;;3.80;2.23;;;5.10;99.90;;;;;;5036131;28;20469;-80
2024/01/30 03:36:10;;;;;;;1.37;1.20;;;4.20;99.90;;;;;;5036119;28;20454;-80
2024/01/30 03:38:37;;;;;;;1.23;0.97;;;;;;;;;;5038150;28;20518;-80
2024/01/30 03:41:04;;;;;;;7.70;2.17;;;;;;;;;;5038357;28;20463;-80
2024/01/30 03:43:31;;;;;;;1.47;1.10;;;;;;;;;;5036271;28;20794;-80
2024/01/30 03:45:58;;;;;;;1.37;1.27;;;;;;;;;;5035900;28;20445;-80
2024/01/30 03:48:27;;;;;;;5.70;1.37;;;3.80;99.90;;;;;;5035960;28;20478;-80
2024/01/30 03:50:54;;;;;;;3.60;1.97;;;3.90;99.90;;;;;;5042963;28;20462;-80
2024/01/30 03:53:21;;;;;;;5.03;2.10;;;;;;;;;;5046709;28;20489;-80
2024/01/30 03:55:48;;;;;;;2.37;1.40;;;3.70;99.90;;;;;;5039958;28;20545;-80
2024/01/30 03:58:15;;;;;;;1.70;0.90;;;;;;;;;;5038839;28;20962;-80
2024/01/30 04:00:42;;;;;;;2.20;1.10;;;;;;;;;;5037031;28;20623;-80
2024/01/30 04:03:09;;;;;;;1.70;1.13;;;;;;;;;;5036880;28;20447;-80
2024/01/30 04:05:37;;;;;;;2.23;1.60;;;3.60;99.90;;;;;;5036762;28;20521;-80
2024/01/30 04:08:05;;;;;;;4.33;2.10;;;;;;;;;;5037017;28;20439;-80
2024/01/30 04:10:32;;;;;;;2.20;1.07;;;;;;;;;;5036916;28;20564;-80
2024/01/30 04:12:59;;;;;;;1.63;1.63;;;;;;;;;;5036832;28;20466;-80
2024/01/30 04:15:25;;;;;;;2.40;1.00;;;;;;;;;;5036017;28;20439;-80
2024/01/30 04:17:52;;;;;;;1.40;1.30;;;;;;;;;;5035419;28;20455;-80
2024/01/30 04:20:19;;;;;;;1.73;1.30;;;;;;;;;;5035595;28;20485;-79
2024/01/30 04:22:48;;;;;;;1.33;1.10;;;3.50;99.90;;;;;;5035624;28;20478;-80
2024/01/30 04:25:15;;;;;;;0.90;0.80;;;;;;;;;;5035452;28;20435;-80
2024/01/30 04:27:42;;;;;;;2.20;1.40;;;;;;;;;;5035964;28;20443;-80
2024/01/30 04:30:10;;;;;;;0.83;0.80;;;3.40;99.90;;;;;;5034685;28;20455;-80
2024/01/30 04:32:38;;;;;;;3.27;2.00;;;;;;;;;;5034925;28;20537;-80
2024/01/30 04:35:05;;;;;;;2.97;1.23;;;3.40;99.90;;;;;;5035504;28;20450;-80
2024/01/30 04:37:32;;;;;;;3.50;0.90;;;;;;;;;;5035251;28;20449;-80
2024/01/30 04:40:00;;;;;;;1.20;0.90;;;3.30;99.90;;;;;;5034678;28;20442;-80
2024/01/30 04:42:27;;;;;;;1.67;1.00;;;;;;;;;;5034473;28;20443;-80
2024/01/30 04:44:54;;;;;;;1.60;1.10;;;;;;;;;;5034931;28;20542;-80
2024/01/30 04:47:22;;;;;;;0.90;0.67;;;;;;;;;;5034842;28;20862;-80
2024/01/30 04:49:50;;;;;;;4.60;2.00;;;;;;;;;;5034327;28;20450;-80
2024/01/30 04:52:17;;;;;;;0.53;0.53;;;;;;;;;;5034519;28;20601;-80
2024/01/30 04:54:44;;;;;;;0.90;0.80;;;;;;;;;;5034157;28;20482;-80
2024/01/30 04:57:13;;;;;;;1.37;1.23;;;3.30;99.90;;;;;;5034174;28;20442;-80
2024/01/30 04:59:40;;;;;;;3.63;1.17;;;;;;;;;;5034148;28;20443;-80
2024/01/30 05:02:07;;;;;;;0.60;0.60;;;;;;;;;;5034249;28;20473;-80
2024/01/30 05:04:34;;;;;;;0.70;0.70;;;;;;;;;;5034180;28;20474;-80
2024/01/30 05:07:01;;;;;;;1.27;0.87;;;;;;;;;;5034949;28;20892;-80
2024/01/30 05:09:29;;;;;;;3.03;1.17;;;3.30;99.90;;;;;;5034333;28;20435;-80
2024/01/30 05:11:56;;;;;;;13.13;1.67;;;;;;;;;;5033948;28;20480;-80
2024/01/30 05:14:25;;;;;;;1.60;0.90;;;3.30;99.90;;;;;;5033978;28;21006;-80
2024/01/30 05:16:53;;;;;;;0.70;0.57;;;;;;;;;;5033755;28;20905;-80
2024/01/30 05:19:22;;;;;;;0.80;0.80;;;;;;;;;;5033836;28;20435;-80
2024/01/30 05:21:49;;;;;;;0.90;0.60;;;;;;;;;;5033771;28;20995;-80
2024/01/30 05:24:17;;;;;;;4.33;1.57;;;;;;;;;;5033994;28;20437;-80
2024/01/30 05:26:44;;;;;;;3.67;1.40;;;;;;;;;;5033819;28;20950;-80
2024/01/30 05:29:11;;;;;;;3.40;1.40;;;;;;;;;;5034160;28;20445;-80
2024/01/30 05:31:39;;;;;;;2.63;0.70;;;3.30;99.90;;;;;;5033729;28;21003;-80
2024/01/30 05:34:07;;;;;;;0.60;0.50;;;;;;;;;;5033837;28;20505;-80
2024/01/30 05:36:34;;;;;;;0.80;0.80;;;;;;;;;;5033992;28;20486;-80
2024/01/30 05:39:01;;;;;;;0.77;0.77;;;3.30;99.90;;;;;;5033845;28;20469;-80
2024/01/30 05:41:28;;;;;;;1.60;1.33;;;;;;;;;;5033615;28;20490;-80
2024/01/30 05:43:55;;;;;;;2.27;1.20;;;;;;;;;;5033776;28;20453;-80
2024/01/30 05:46:23;;;;;;;5.93;0.97;;;;;;;;;;5033481;28;20801;-80
2024/01/30 05:48:51;;;;;;;2.80;1.43;;;3.40;99.90;;;;;;5033391;28;20958;-80
2024/01/30 05:51:18;;;;;;;5.40;1.77;;;;;;;;;;5034072;28;20471;-80
2024/01/30 05:53:46;;;;;;;2.37;0.70;;;;;;;;;;5036055;28;20493;-79
2024/01/30 05:56:13;;;;;;;0.77;0.73;;;;;;;;;;5039414;28;20449;-80
2024/01/30 05:58:40;;;;;;;2.93;1.00;;;;;;;;;;5033487;28;20439;-80
2024/01/30 06:01:09;;;;;;;1.40;0.80;;;3.30;99.90;;;;;;5033484;28;20459;-80
2024/01/30 06:03:36;;;;;;;0.97;0.97;;;;;;;;;;5033922;28;20454;-80
2024/01/30 06:06:04;;;;;;;0.60;0.60;;;3.20;99.90;;;;;;5036655;28;20451;-79
2024/01/30 06:08:32;;;;;;;0.87;0.87;;;;;;;;;;5034618;28;20443;-79
2024/01/30 06:10:59;;;;;;;0.80;0.80;;;;;;;;;;5033193;28;20493;-80
2024/01/30 06:13:26;;;;;;;0.50;0.43;;;3.20;99.90;;;;;;5033035;28;20478;-80
2024/01/30 06:15:53;;;;;;;1.43;0.90;;;5.20;99.90;;;;;;5033776;28;20450;-80
2024/01/30 06:18:20;;;;;;;1.57;0.73;;;;;;;;;;5033316;28;20928;-80
2024/01/30 06:20:47;;;;;;;0.60;0.60;;;;;;;;;;5032889;28;20569;-80
2024/01/30 06:23:15;;;;;;;2.47;0.73;;;3.20;99.90;;;;;;5033004;28;20447;-80
2024/01/30 06:25:43;;;;;;;1.40;1.17;;;;;;;;;;5033187;28;20435;-80
2024/01/30 06:28:10;;;;;;;0.70;0.70;;;;;;;;;;5034071;28;20467;-80
2024/01/30 06:30:37;;;;;;;1.00;0.90;;;;;;;;;;5036914;28;20454;-80
2024/01/30 06:33:04;;;;;;;0.77;0.40;;;;;;;;;;5037670;28;20482;-80
2024/01/30 06:35:31;;;;;;;0.50;0.50;;;;;;;;;;5036872;28;20537;-80
2024/01/30 06:37:58;;;;;;;0.40;0.40;;;;;;;;;;5037308;28;20457;-80
2024/01/30 06:40:27;;;;;;;1.57;0.60;;;3.10;99.90;;;;;;5036946;28;20472;-80
2024/01/30 06:42:54;;;;;;;0.73;0.73;;;;;;;;;;5036730;28;20442;-80
2024/01/30 06:45:21;;;;;;;1.07;1.03;;;3.10;99.90;;;;;;5037172;28;20454;-80
2024/01/30 06:47:48;;;;;;;0.80;0.80;;;;;;;;;;5036826;28;20435;-80
2024/01/30 06:50:15;;;;;;;3.63;1.37;;;;;;;;;;5036680;28;20446;-80
2024/01/30 06:52:42;;;;;;;1.90;0.83;;;;;;;;;;5036752;28;20439;-80
2024/01/30 06:55:11;;;;;;;0.80;0.70;;;3.20;99.90;;;;;;5036502;28;20488;-80
2024/01/30 06:57:39;;;;;;;1.53;1.43;;;3.20;99.90;;;;;;5037238;28;20807;-80
2024/01/30 07:00:07;;;;;;;0.97;0.60;;;3.30;99.90;;;;;;5036484;28;20932;-80
2024/01/30 07:02:34;;;;;;;1.00;0.90;;;;;;;;;;5036647;28;20442;-80
2024/01/30 07:05:01;;;;;;;6.80;1.60;;;;;;;;;;5036624;28;20454;-79
2024/01/30 07:07:28;;;;;;;3.07;0.60;;;;;;;;;;5036503;28;20443;-79
2024/01/30 07:09:56;;;;;;;1.17;1.17;;;;;;;;;;5036196;28;20439;-79
2024/01/30 07:12:24;;;;;;;3.17;1.23;;;;;;;;;;5036892;28;20545;-80
2024/01/30 07:14:53;;;;;;;0.90;0.43;;;3.40;99.90;;;;;;5036715;28;20489;-80
2024/01/30 07:17:20;;;;;;;0.60;0.57;;;;;;;;;;5037836;28;20560;-80
2024/01/30 07:19:47;;;;;;;3.80;0.77;;;3.50;99.90;;;;;;5036495;28;20458;-80
2024/01/30 07:22:14;;;;;;;1.00;0.90;;;;;;;;;;5036273;28;20471;-80
2024/01/30 07:24:47;;;;;;;4.03;1.03;;;3.50;99.90;;;;;;5036546;28;20839;-79
2024/01/30 07:27:17;;;;;;;0.60;0.60;;;3.50;99.90;;;;;;5037017;28;20455;-79
2024/01/30 07:29:44;;;;;;;2.03;0.90;;;;;;;;;;5035854;28;20494;-79
2024/01/30 07:32:12;;;;;;;12.33;1.60;;;3.60;99.90;;;;;;5036181;28;20486;-80
2024/01/30 07:34:40;;;;;;;0.50;0.47;;;;;;;;;;5036035;28;20486;-80
2024/01/30 07:37:08;;;;;;;0.60;0.60;;;;;;;;;;5036794;28;20443;-80
2024/01/30 07:39:35;;;;;;;1.30;0.87;;;;;;;;;;5035595;28;20445;-80
2024/01/30 07:42:02;;;;;;;5.33;1.53;;;;;;;;;;5035674;28;20459;-80
2024/01/30 07:44:30;;;;;;;1.00;0.57;;;;;;;;;;5036760;28;20442;-80
2024/01/30 07:46:57;;;;;;;0.70;0.40;;;;;;;;;;5036454;28;20435;-80
2024/01/30 07:49:25;;;;;;;1.63;0.90;;;4.00;99.90;;;;;;5035697;28;20445;-80
2024/01/30 07:51:52;;;;;;;0.70;0.70;;;;;;;;;;5035465;28;20455;-80
2024/01/30 07:54:19;;;;;;;0.63;0.50;;;;;;;;;;5035661;28;20565;-80
2024/01/30 07:56:46;;;;;;;4.47;1.43;;;;;;;;;;5036208;28;20457;-80
2024/01/30 07:59:13;;;;;;;0.83;0.80;;;;;;;;;;5035475;28;20435;-80
2024/01/30 08:01:40;;;;;;;1.80;0.80;;;;;;;;;;5035736;28;20455;-80
2024/01/30 08:04:13;;;;;;;1.90;1.20;;;4.70;99.90;;;;;;5035603;28;20473;-80
2024/01/30 08:06:41;;;;;;;3.40;1.00;;;4.70;99.90;;;;;;5035536;28;20427;-80
2024/01/30 08:09:09;;;;;;;3.33;1.30;;;6.90;99.90;;;;;;5035672;28;20439;-80
2024/01/30 08:11:36;;;;;;;4.80;2.03;;;;;;;;;;5035555;28;20960;-80
2024/01/30 08:14:03;;;;;;;2.30;1.43;;;;;;;;;;5035380;28;21029;-80
2024/01/30 08:16:30;;;;;;;2.40;1.70;;;;;;;;;;5035349;28;20446;-80
2024/01/30 08:18:57;;;;;;;2.80;1.17;;;5.40;99.90;;;;;;5035045;28;20457;-80
2024/01/30 08:21:24;;;;;;;2.90;1.23;;;;;;;;;;5035207;28;20471;-80
2024/01/30 08:23:52;;;;;;;3.43;1.03;;;5.50;99.90;;;;;;5035240;28;20443;-80
2024/01/30 08:26:19;;;;;;;1.20;0.93;;;5.60;99.90;;;;;;5035223;28;20497;-80
2024/01/30 08:28:50;;;;;;;8.50;2.90;;;5.60;99.90;;;;;;5035149;28;20517;-80
2024/01/30 08:31:17;;;;;;;6.80;3.57;;;;;;;;;;5035811;28;20828;-80
2024/01/30 08:33:44;;;;;;;4.83;3.40;;;5.80;99.90;;;;;;5035218;28;20481;-80
2024/01/30 08:36:11;;;;;;;9.60;3.27;;;;;;;;;;5035064;28;20439;-80
2024/01/30 08:38:37;;;;;;;2.13;1.40;;;6.00;99.90;;;;;;5035073;28;20438;-80
2024/01/30 08:41:05;;;;;;;3.43;1.43;;;6.00;99.90;;;;;;5034821;28;20459;-80
2024/01/30 08:43:33;;;;;;;5.20;2.07;;;5.90;99.90;;;;;;5034585;28;21001;-80
2024/01/30 08:46:00;;;;;;;2.43;2.23;;;7.80;99.90;;;;;;5034896;28;20439;-80
2024/01/30 08:48:27;;;;;;;2.77;1.20;;;6.20;99.90;;;;;;5037700;28;20439;-80
2024/01/30 08:50:54;;;;;;;1.47;1.37;;;6.20;99.90;;;;;;5035174;28;20462;-80
2024/01/30 08:53:21;;;;;;;1.43;1.33;;;;;;;;;;5034637;28;20439;-80
2024/01/30 08:55:48;;;;;;;2.67;1.63;;;;;;;;;;5034737;28;20485;-79
2024/01/30 08:58:18;;;;;;;4.00;2.33;;;6.50;99.90;;;;;;5035404;28;20454;-79
2024/01/30 09:00:44;;;;;;;4.53;2.73;;;6.60;99.90;;;;;;5034550;28;20525;-80
2024/01/30 09:03:11;;;;;;;6.13;2.87;;;6.80;99.90;;;;;;5034597;28;20454;-80
2024/01/30 09:05:38;;;;;;;2.87;2.17;;;8.00;99.90;;;;;;5034939;28;20431;-80
2024/01/30 09:08:05;;;;;;;1.70;1.47;;;7.40;99.90;;;;;;5035144;28;20454;-80
2024/01/30 09:10:32;;;;;;;2.63;1.40;;;7.80;99.90;;;;;;5034452;28;20538;-80
2024/01/30 09:12:58;;;;;;;3.80;1.70;;;8.30;99.90;;;;;;5034769;28;20434;-80
2024/01/30 09:15:26;;;;;;;3.80;1.90;;;8.70;99.90;;;;;;5034535;28;20489;-80
2024/01/30 09:17:53;;;;;;;4.00;2.33;;;9.10;99.90;;;;;;5034777;28;20442;-80
2024/01/30 09:20:22;;;;;;;3.10;2.73;;;9.50;99.90;;;;;;5036693;28;20439;-81
2024/01/30 09:22:49;;;;;;;2.70;2.50;;;10.00;99.90;;;;;;5037039;28;20455;-81
2024/01/30 09:25:16;;;;;;;2.90;1.40;;;10.20;99.90;;;;;;5037482;28;20438;-81
2024/01/30 09:27:42;;;;;;;4.33;2.07;;;10.20;99.90;;;;;;5037097;28;20819;-81
2024/01/30 09:30:10;;;;;;;6.47;2.37;;;10.00;99.90;;;;;;5036837;28;20443;-81
2024/01/30 09:32:38;;;;;;;2.77;2.57;;;9.90;99.90;;;;;;5037292;28;20813;-81
2024/01/30 09:35:05;;;;;;;4.77;2.50;;;11.70;99.90;;;;;;5036808;28;20489;-81
2024/01/30 09:37:32;;;;;;;4.60;2.83;;;9.80;99.90;;;;;;5039012;28;20443;-81
2024/01/30 09:39:59;;;;;;;8.43;1.93;;;9.80;99.90;;;;;;5038599;28;20435;-81
2024/01/30 09:42:35;;;;;;;5.10;2.30;;;9.90;99.90;;;;;;5038333;28;20443;-81
2024/01/30 09:45:03;;;;;;;2.90;1.70;;;9.80;99.90;;;;;;5038580;28;20772;-81
2024/01/30 09:47:33;;;;;;;1.90;1.80;;;10.90;99.90;;;;;;5038482;28;20935;-81
2024/01/30 09:50:03;;;;;;;3.37;2.80;;;9.70;99.90;;;;;;5037589;28;20442;-81
2024/01/30 09:52:30;;;;;;;3.20;2.60;;;9.60;99.90;;;;;;5037524;28;20525;-81
2024/01/30 09:54:57;;;;;;;7.10;2.87;;;9.60;99.90;;;;;;5037661;28;20470;-81
2024/01/30 09:57:26;;;;;;;4.90;2.80;;;9.50;99.90;;;;;;5037418;28;20450;-80
2024/01/30 09:59:53;;;;;;;4.73;2.80;;;9.70;99.90;;;;;;5037429;28;20470;-80
2024/01/30 10:02:20;;;;;;;3.93;2.07;;;9.50;99.90;;;;;;5036335;28;20485;-80
2024/01/30 10:04:49;;;;;;;6.93;3.57;;;9.50;99.90;;;;;;5037254;28;20447;-80
2024/01/30 10:07:17;;;;;;;4.40;2.30;;;9.50;99.90;;;;;;5036217;28;20446;-80
2024/01/30 10:09:44;;;;;;;11.03;3.40;;;9.50;99.90;;;;;;5036413;28;20442;-80
2024/01/30 10:12:11;;;;;;;3.00;1.77;;;9.60;99.90;;;;;;5036202;28;20857;-80
2024/01/30 10:14:39;;;;;;;4.20;2.53;;;9.70;99.90;;;;;;5036601;28;20509;-80
2024/01/30 10:17:06;;;;;;;8.00;2.07;;;9.80;99.90;;;;;;5037051;28;20900;-80
2024/01/30 10:19:33;;;;;;;4.60;2.30;;;9.80;99.90;;;;;;5036972;28;20552;-80
2024/01/30 10:22:01;;;;;;;3.87;1.30;;;9.90;99.90;;;;;;5035236;28;20987;-80
2024/01/30 10:24:30;;;;;;;4.17;1.80;;;10.00;99.90;;;;;;5034696;28;20931;-80
2024/01/30 10:26:56;;;;;;;5.37;2.00;;;10.00;99.90;;;;;;5035273;28;20438;-80
2024/01/30 10:29:23;;;;;;;2.07;1.87;;;10.00;99.90;;;;;;5034769;28;20435;-80
2024/01/30 10:31:59;;;;;;;3.73;2.40;;;10.00;99.90;;;;;;5034352;28;20979;-80
2024/01/30 10:34:26;;;;;;;1.07;0.97;;;10.20;99.90;;;;;;5034437;28;20466;-80
2024/01/30 10:37:01;;;;;;;1.00;0.90;;;10.20;99.90;;;;;;5034398;28;20958;-80
2024/01/30 10:39:31;;;;;;;0.67;0.57;;;10.30;99.90;;;;;;5035440;28;20435;-81
2024/01/30 10:42:04;;;;;;;0.90;0.63;;;10.40;99.90;;;;;;5034578;28;20484;-80
2024/01/30 10:44:37;;;;;;;1.07;0.70;;;10.50;99.90;;;;;;5034146;28;20411;-80
2024/01/30 10:47:12;;;;;;;3.47;1.30;;;10.70;99.90;;;;;;5033803;28;20793;-81
2024/01/30 10:49:40;;;;;;;1.20;0.60;;;10.90;99.90;;;;;;5033733;28;20426;-81
2024/01/30 10:52:08;;;;;;;1.63;1.00;;;11.00;99.90;;;;;;5033227;28;20995;-80
2024/01/30 10:54:38;;;;;;;3.27;0.90;;;11.10;99.90;;;;;;5033459;28;20486;-80
2024/01/30 10:57:06;;;;;;;0.60;0.60;;;11.20;99.90;;;;;;5035182;28;20537;-81
2024/01/30 10:59:33;;;;;;;1.90;0.80;;;11.20;99.90;;;;;;5035175;28;20818;-80
2024/01/30 11:02:01;;;;;;;0.70;0.70;;;11.30;99.90;;;;;;5035179;28;20467;-81
2024/01/30 11:04:27;;;;;;;1.10;0.67;;;11.40;99.90;;;;;;5034833;28;20810;-81
2024/01/30 11:06:55;;;;;;;2.33;0.70;;;11.50;99.90;;;;;;5035901;28;20446;-80
2024/01/30 11:09:22;;;;;;;1.00;0.90;;;11.50;99.90;;;;;;5035633;28;20450;-80
2024/01/30 11:11:59;;;;;;;0.80;0.80;;;11.50;99.90;;;;;;5035644;28;20482;-81
2024/01/30 11:14:27;;;;;;;1.63;1.00;;;11.50;99.90;;;;;;5038571;28;20866;-80
2024/01/30 11:16:54;;;;;;;1.63;0.87;;;11.60;99.90;;;;;;5040321;28;20439;-81
2024/01/30 11:19:25;;;;;;;2.40;1.20;;;11.70;99.90;;;;;;5041816;28;20451;-81
2024/01/30 11:21:53;;;;;;;2.37;0.67;;;11.90;99.90;;;;;;5039700;28;20497;-81
2024/01/30 11:24:21;;;;;;;1.10;0.90;;;11.90;99.90;;;;;;5037240;28;20568;-81
2024/01/30 11:26:50;;;;;;;2.03;1.07;;;12.00;99.90;;;;;;5036772;28;20447;-81
2024/01/30 11:29:17;;;;;;;0.97;0.90;;;12.10;99.90;;;;;;5037561;28;20497;-81
2024/01/30 11:31:53;;;;;;;0.60;0.60;;;12.10;99.90;;;;;;5037665;28;20506;-81
2024/01/30 11:34:20;;;;;;;1.80;1.17;;;12.10;99.90;;;;;;5037755;28;20437;-81
2024/01/30 11:36:54;;;;;;;0.83;0.73;;;12.20;99.90;;;;;;5037494;28;20447;-80
2024/01/30 11:39:21;;;;;;;1.17;0.90;;;12.20;99.90;;;;;;5037916;28;20439;-81
2024/01/30 11:41:51;;;;;;;0.70;0.70;;;12.10;99.90;;;;;;5037276;28;20524;-81
2024/01/30 11:44:20;;;;;;;1.33;0.70;;;12.10;99.90;;;;;;5037186;28;20462;-81
2024/01/30 11:46:47;;;;;;;0.70;0.70;;;12.20;99.90;;;;;;5037197;28;20518;-81
2024/01/30 11:49:14;;;;;;;1.37;0.80;;;12.20;99.90;;;;;;5036743;28;20450;-81
2024/01/30 11:51:41;;;;;;;1.67;0.77;;;12.20;99.90;;;;;;5039613;28;20980;-81
2024/01/30 11:54:08;;;;;;;3.80;0.80;;;12.20;99.90;;;;;;5038941;28;20519;-80
2024/01/30 11:56:35;;;;;;;1.77;0.83;;;12.20;99.90;;;;;;5038892;28;20481;-80
2024/01/30 11:59:02;;;;;;;1.63;0.60;;;12.20;99.90;;;;;;5038610;28;20454;-80
2024/01/30 12:01:31;;;;;;;1.07;0.63;;;12.30;99.90;;;;;;5038341;28;20455;-80
2024/01/30 12:04:00;;;;;;;0.80;0.80;;;12.30;99.90;;;;;;5037499;28;20447;-81
2024/01/30 12:06:26;;;;;;;0.53;0.53;;;12.20;99.90;;;;;;5036603;28;20530;-81
2024/01/30 12:08:58;;;;;;;1.07;0.70;;;12.30;99.90;;;;;;5036692;28;20442;-81
2024/01/30 12:11:25;;;;;;;8.00;1.27;;;12.30;99.90;;;;;;5037546;28;20474;-81
2024/01/30 12:13:53;;;;;;;0.63;0.63;;;12.40;99.90;;;;;;5038602;28;20446;-81
2024/01/30 12:16:20;;;;;;;1.60;0.90;;;12.40;99.90;;;;;;5037187;28;20483;-81
2024/01/30 12:18:48;;;;;;;1.20;0.70;;;12.50;99.90;;;;;;5036594;28;20959;-80
2024/01/30 12:21:17;;;;;;;0.90;0.80;;;12.50;99.90;;;;;;5038658;28;20466;-80
2024/01/30 12:23:44;;;;;;;0.80;0.80;;;12.60;99.90;;;;;;5038430;28;20966;-80
2024/01/30 12:26:11;;;;;;;1.43;1.17;;;12.50;99.90;;;;;;5036476;28;20458;-80
2024/01/30 12:28:48;;;;;;;1.93;0.80;;;12.50;99.90;;;;;;5038467;28;20447;-80
2024/01/30 12:31:14;;;;;;;2.20;1.10;;;12.50;99.90;;;;;;5037826;28;20466;-80
2024/01/30 12:33:41;;;;;;;6.63;1.63;;;12.60;99.90;;;;;;5038147;28;20415;-80
2024/01/30 12:36:09;;;;;;;1.90;0.70;;;12.60;99.90;;;;;;5037781;28;20486;-80
2024/01/30 12:38:36;;;;;;;1.17;1.00;;;12.50;99.90;;;;;;5037335;28;20450;-80
2024/01/30 12:41:03;;;;;;;0.80;0.63;;;12.50;99.90;;;;;;5037304;28;20458;-80
2024/01/30 12:43:30;;;;;;;1.60;0.90;;;12.50;99.90;;;;;;5037561;28;20447;-80
2024/01/30 12:45:58;;;;;;;1.90;1.00;;;12.50;99.90;;;;;;5037180;28;20533;-80
2024/01/30 12:48:25;;;;;;;0.87;0.87;;;12.50;99.90;;;;;;5036750;28;20512;-80
2024/01/30 12:50:52;;;;;;;1.17;0.80;;;12.50;99.90;;;;;;5037320;28;20471;-80
2024/01/30 12:53:20;;;;;;;1.63;0.97;;;12.50;99.90;;;;;;5037050;28;20454;-80
2024/01/30 12:55:47;;;;;;;1.70;0.83;;;12.50;99.90;;;;;;5037246;28;20859;-80
2024/01/30 12:58:13;;;;;;;0.80;0.60;;;12.40;99.90;;;;;;5037273;28;20443;-81
2024/01/30 13:00:40;;;;;;;1.50;1.07;;;12.50;99.90;;;;;;5036813;28;20462;-80
2024/01/30 13:03:08;;;;;;;1.43;1.33;;;12.40;99.90;;;;;;5036350;28;20435;-80
2024/01/30 13:05:35;;;;;;;1.07;1.07;;;12.40;99.90;;;;;;5035590;28;20447;-80
2024/01/30 13:08:01;;;;;;;1.13;0.80;;;12.40;99.90;;;;;;5035770;28;20447;-80
2024/01/30 13:10:29;;;;;;;1.63;1.47;;;12.30;99.90;;;;;;5035685;28;20479;-80
2024/01/30 13:12:56;;;;;;;0.90;0.80;;;12.30;99.90;;;;;;5035079;28;20415;-80
2024/01/30 13:15:23;;;;;;;0.80;0.80;;;12.20;99.90;;;;;;5035775;28;20557;-81
2024/01/30 13:17:50;;;;;;;3.97;0.83;;;12.10;99.90;;;;;;5035773;28;20447;-81
2024/01/30 13:20:19;;;;;;;2.10;1.00;;;12.10;99.90;;;;;;5035334;28;20573;-80
2024/01/30 13:22:47;;;;;;;1.20;0.80;;;12.00;99.90;;;;;;5037919;28;20443;-80
2024/01/30 13:25:15;;;;;;;0.63;0.60;;;12.00;99.90;;;;;;5037938;28;20439;-80
2024/01/30 13:27:43;;;;;;;1.50;0.80;;;11.90;99.90;;;;;;5037402;28;20450;-80
2024/01/30 13:30:10;;;;;;;1.10;0.90;;;12.00;99.90;;;;;;5037660;28;20443;-80
2024/01/30 13:32:38;;;;;;;1.57;0.80;;;12.00;99.90;;;;;;5035979;28;20456;-80
2024/01/30 13:35:05;;;;;;;0.60;0.60;;;12.00;99.90;;;;;;5041884;28;20958;-81